Time;durP1;ratioP1;P1;durP2;ratioP2;P2;SDS_P1;SDS_P2;PMS_P1;PMS_P2;Temp;Humidity;BMP_temperature;BMP_pressure;BME280_temperature;BME280_humidity;BME280_pressure;Samples;Min_cycle;Max_cycle;Signal;HPM_P1;HPM_P2
2021/03/30 00:00:41;;;;;;;26.30;11.90;;;17.50;34.40;;;;;;5059161;28;20518;-65
2021/03/30 00:03:09;;;;;;;27.38;12.90;;;;;;;;;;5074779;28;20043;-67
2021/03/30 00:05:35;;;;;;;25.52;12.43;;;17.60;34.30;;;;;;5074042;28;20037;-63
2021/03/30 00:08:04;;;;;;;31.67;13.55;;;17.50;34.60;;;;;;5074500;28;20067;-66
2021/03/30 00:10:36;;;;;;;29.98;11.65;;;17.50;34.50;;;;;;5072594;28;20436;-66
2021/03/30 00:13:04;;;;;;;32.60;12.50;;;17.50;34.70;;;;;;5074202;28;20076;-67
2021/03/30 00:15:32;;;;;;;25.65;12.25;;;;;;;;;;5074489;28;20037;-67
2021/03/30 00:17:58;;;;;;;28.60;12.80;;;17.40;34.70;;;;;;5040185;28;20040;-66
2021/03/30 00:20:25;;;;;;;30.58;12.48;;;17.20;35.20;;;;;;5073895;28;20517;-64
2021/03/30 00:22:52;;;;;;;;;;;17.20;35.20;;;;;;5074735;28;20037;-66
2021/03/30 00:25:19;;;;;;;26.52;12.32;;;17.30;35.20;;;;;;5056294;28;19920;-66
2021/03/30 00:27:45;;;;;;;;;;;17.20;35.20;;;;;;5074336;28;20033;-65
2021/03/30 00:30:13;;;;;;;30.20;13.60;;;17.20;35.30;;;;;;5074208;28;20378;-66
2021/03/30 00:32:40;;;;;;;36.40;13.43;;;17.30;35.30;;;;;;5073821;28;20057;-66
2021/03/30 00:35:07;;;;;;;;;;;17.30;35.80;;;;;;5074609;28;20044;-65
2021/03/30 00:37:36;;;;;;;31.88;13.02;;;17.30;35.50;;;;;;5073935;28;19931;-68
2021/03/30 00:40:07;;;;;;;24.88;12.02;;;17.20;36.10;;;;;;5073530;28;20043;-66
2021/03/30 00:42:34;;;;;;;27.80;11.80;;;17.00;36.60;;;;;;5072537;28;20067;-67
2021/03/30 00:45:01;;;;;;;24.45;12.38;;;16.80;36.60;;;;;;5073937;28;20057;-66
2021/03/30 00:47:31;;;;;;;;;;;16.90;36.80;;;;;;5074049;28;20124;-65
2021/03/30 00:49:58;;;;;;;34.55;12.40;;;;;;;;;;5073584;28;19945;-65
2021/03/30 00:52:26;;;;;;;32.50;13.18;;;;;;;;;;5056251;28;20048;-66
2021/03/30 00:55:12;;;;;;;30.70;13.65;;;;;;;;;;5073246;28;20402;-65
2021/03/30 00:57:44;;;;;;;29.05;14.43;;;16.30;37.60;;;;;;5019895;28;20040;-66
2021/03/30 01:00:13;;;;;;;28.75;14.30;;;16.30;37.40;;;;;;5051796;28;20040;-64
2021/03/30 01:02:40;;;;;;;35.92;14.60;;;16.30;37.70;;;;;;5073072;28;20044;-66
2021/03/30 01:05:09;;;;;;;30.15;13.82;;;16.30;37.70;;;;;;5073432;28;20582;-66
2021/03/30 01:07:38;;;;;;;39.58;14.52;;;16.30;37.80;;;;;;5073193;28;20036;-65
2021/03/30 01:10:23;;;;;;;34.85;15.10;;;16.40;37.60;;;;;;5055542;28;20048;-65
2021/03/30 01:12:58;;;;;;;28.88;13.32;;;16.40;37.50;;;;;;5055521;28;20059;-65
2021/03/30 01:15:37;;;;;;;35.40;15.52;;;16.40;37.70;;;;;;5073155;28;20047;-66
2021/03/30 01:18:12;;;;;;;31.27;13.80;;;16.20;38.40;;;;;;5072805;28;20036;-65
2021/03/30 01:21:03;;;;;;;28.73;14.13;;;16.30;38.50;;;;;;5073127;28;20487;-66
2021/03/30 01:23:57;;;;;;;41.10;14.43;;;16.30;38.00;;;;;;5073093;28;20403;-66
2021/03/30 01:26:45;;;;;;;38.15;14.63;;;16.40;37.70;;;;;;5060367;28;20441;-66
2021/03/30 01:29:17;;;;;;;31.30;14.00;;;16.40;37.90;;;;;;5072809;28;20048;-65
2021/03/30 01:31:49;;;;;;;33.40;14.57;;;16.50;37.90;;;;;;5072618;28;20033;-64
2021/03/30 01:34:20;;;;;;;44.15;15.10;;;16.40;37.60;;;;;;5072723;28;20048;-65
2021/03/30 01:36:50;;;;;;;38.95;14.73;;;16.40;37.70;;;;;;5072717;28;20395;-66
2021/03/30 01:39:18;;;;;;;30.67;14.52;;;16.40;37.80;;;;;;5072442;28;20067;-67
2021/03/30 01:41:48;;;;;;;36.25;14.45;;;16.40;37.90;;;;;;5072436;28;20041;-66
2021/03/30 01:44:18;;;;;;;32.53;15.00;;;16.40;38.00;;;;;;5071320;28;20407;-64
2021/03/30 01:46:47;;;;;;;34.17;15.40;;;16.40;37.80;;;;;;5072046;28;20048;-65
2021/03/30 01:49:15;;;;;;;41.53;17.55;;;16.40;37.80;;;;;;5072552;28;20089;-66
2021/03/30 01:51:42;;;;;;;35.28;15.68;;;;;;;;;;5071241;28;20052;-65
2021/03/30 01:54:12;;;;;;;42.60;14.65;;;16.30;37.80;;;;;;5072417;28;20052;-66
2021/03/30 01:56:40;;;;;;;33.72;15.55;;;16.30;38.00;;;;;;5071320;28;20552;-66
2021/03/30 01:59:12;;;;;;;34.88;15.95;;;16.30;38.00;;;;;;5072517;28;20033;-67
2021/03/30 02:01:40;;;;;;;33.83;15.57;;;16.20;38.10;;;;;;5054233;28;20040;-66
2021/03/30 02:04:08;;;;;;;32.45;14.85;;;16.20;38.30;;;;;;5054353;28;20036;-65
2021/03/30 02:06:37;;;;;;;29.58;15.05;;;16.30;38.20;;;;;;5072147;28;20040;-66
2021/03/30 02:09:08;;;;;;;38.20;14.32;;;16.10;38.60;;;;;;5037718;28;20040;-66
2021/03/30 02:11:48;;;;;;;37.47;15.40;;;16.00;38.50;;;;;;5072188;28;20123;-65
2021/03/30 02:14:15;;;;;;;28.85;14.55;;;16.00;38.60;;;;;;5071445;28;20048;-66
2021/03/30 02:16:50;;;;;;;35.10;14.15;;;;;;;;;;5054727;28;20856;-65
2021/03/30 02:19:28;;;;;;;40.45;15.50;;;15.90;38.70;;;;;;5071145;28;20041;-65
2021/03/30 02:22:03;;;;;;;35.63;14.98;;;15.60;39.00;;;;;;5072206;28;20036;-66
2021/03/30 02:24:32;;;;;;;35.92;15.13;;;15.70;39.30;;;;;;5071668;28;20044;-66
2021/03/30 02:26:59;;;;;;;32.25;15.60;;;;;;;;;;5071891;28;20040;-67
2021/03/30 02:29:32;;;;;;;34.20;15.32;;;15.60;39.30;;;;;;5071248;28;20055;-68
2021/03/30 02:32:01;;;;;;;39.17;15.82;;;15.70;39.30;;;;;;5071655;28;20048;-66
2021/03/30 02:34:30;;;;;;;34.83;16.02;;;15.50;39.60;;;;;;5071790;28;20064;-67
2021/03/30 02:36:57;;;;;;;42.40;16.73;;;;;;;;;;5071711;28;20040;-67
2021/03/30 02:39:25;;;;;;;40.90;16.65;;;15.60;39.50;;;;;;5071741;28;20068;-66
2021/03/30 02:41:53;;;;;;;35.92;16.30;;;15.70;39.40;;;;;;5070425;28;20040;-65
2021/03/30 02:44:21;;;;;;;35.05;15.88;;;15.70;39.30;;;;;;5068635;28;20048;-66
2021/03/30 02:46:49;;;;;;;42.03;16.63;;;15.70;39.20;;;;;;5065926;28;20049;-66
2021/03/30 02:49:18;;;;;;;37.55;15.63;;;15.70;39.20;;;;;;5071870;28;20043;-66
2021/03/30 02:51:47;;;;;;;33.35;16.20;;;15.70;39.30;;;;;;5071597;28;20127;-67
2021/03/30 02:54:16;;;;;;;39.65;16.58;;;15.80;39.40;;;;;;5071558;28;20053;-65
2021/03/30 02:56:44;;;;;;;38.72;16.88;;;15.70;39.40;;;;;;5071760;28;20048;-65
2021/03/30 02:59:12;;;;;;;35.22;16.13;;;;;;;;;;5070896;28;20098;-66
2021/03/30 03:01:39;;;;;;;32.28;14.52;;;15.70;39.60;;;;;;5071685;28;20048;-66
2021/03/30 03:04:06;;;;;;;37.83;16.70;;;15.60;39.40;;;;;;5071228;28;20047;-66
2021/03/30 03:06:35;;;;;;;35.10;15.02;;;15.60;39.20;;;;;;5071731;28;20064;-66
2021/03/30 03:09:02;;;;;;;34.80;16.00;;;;;;;;;;5071165;28;20036;-67
2021/03/30 03:11:29;;;;;;;43.05;16.33;;;;;;;;;;5053466;28;20060;-66
2021/03/30 03:13:57;;;;;;;34.53;15.90;;;;;;;;;;5070518;28;20040;-65
2021/03/30 03:16:24;;;;;;;33.03;15.35;;;15.30;40.20;;;;;;5071448;28;20052;-66
2021/03/30 03:18:52;;;;;;;39.72;16.38;;;;;;;;;;5070815;28;20430;-65
2021/03/30 03:21:24;;;;;;;33.85;15.00;;;15.10;40.50;;;;;;5071387;28;20037;-66
2021/03/30 03:23:51;;;;;;;34.08;15.07;;;14.90;40.50;;;;;;5071126;28;20142;-67
2021/03/30 03:26:19;;;;;;;32.45;16.30;;;;;;;;;;5070713;28;20445;-67
2021/03/30 03:28:46;;;;;;;39.30;15.57;;;;;;;;;;5070864;28;20453;-66
2021/03/30 03:31:14;;;;;;;35.58;15.32;;;14.70;41.50;;;;;;5073570;28;20045;-67
2021/03/30 03:33:42;;;;;;;37.58;15.57;;;14.70;41.20;;;;;;5075367;28;20049;-64
2021/03/30 03:36:13;;;;;;;35.88;15.05;;;14.60;41.60;;;;;;5075048;28;20433;-67
2021/03/30 03:38:41;;;;;;;33.30;15.02;;;14.50;41.90;;;;;;5057198;28;20045;-66
2021/03/30 03:41:13;;;;;;;35.50;16.52;;;14.40;42.00;;;;;;5074392;28;20051;-67
2021/03/30 03:43:40;;;;;;;35.38;15.73;;;;;;;;;;5075078;28;20051;-67
2021/03/30 03:46:08;;;;;;;38.47;17.15;;;;;;;;;;5074977;28;20043;-65
2021/03/30 03:48:35;;;;;;;37.03;16.25;;;;;;;;;;5074978;28;20786;-66
2021/03/30 03:51:05;;;;;;;34.78;15.65;;;14.20;42.30;;;;;;5056968;28;20632;-64
2021/03/30 03:53:35;;;;;;;32.13;16.15;;;14.20;42.70;;;;;;5074960;28;20036;-67
2021/03/30 03:56:02;;;;;;;32.17;15.63;;;;;;;;;;5075254;28;20040;-66
2021/03/30 03:58:47;;;;;;;37.97;15.65;;;14.10;42.40;;;;;;5057706;28;20052;-64
2021/03/30 04:01:17;;;;;;;33.42;15.43;;;14.10;42.30;;;;;;5075322;28;20044;-65
2021/03/30 04:03:52;;;;;;;31.75;15.20;;;14.10;42.20;;;;;;5075047;28;20458;-65
2021/03/30 04:06:35;;;;;;;32.47;15.48;;;14.10;42.50;;;;;;5074353;28;20516;-66
2021/03/30 04:09:05;;;;;;;32.10;15.38;;;13.90;43.00;;;;;;5056612;28;20072;-65
2021/03/30 04:11:32;;;;;;;33.70;15.57;;;13.90;43.30;;;;;;5074062;28;20052;-66
2021/03/30 04:13:59;;;;;;;32.35;15.27;;;;;;;;;;5074200;28;20056;-66
2021/03/30 04:16:26;;;;;;;36.08;16.27;;;;;;;;;;5074552;28;20056;-67
2021/03/30 04:18:54;;;;;;;34.42;15.65;;;;;;;;;;5056267;28;20118;-65
2021/03/30 04:21:33;;;;;;;34.38;15.77;;;13.60;44.70;;;;;;5074520;28;20051;-67
2021/03/30 04:24:00;;;;;;;36.65;16.58;;;;;;;;;;5074132;28;20048;-66
2021/03/30 04:26:28;;;;;;;39.25;16.45;;;13.80;44.60;;;;;;5073910;28;20041;-67
2021/03/30 04:28:55;;;;;;;33.75;16.25;;;;;;;;;;5072595;28;20132;-66
2021/03/30 04:31:22;;;;;;;35.50;15.73;;;;;;;;;;5074162;28;20056;-66
2021/03/30 04:33:49;;;;;;;42.65;17.90;;;;;;;;;;5074282;28;20036;-67
2021/03/30 04:36:16;;;;;;;38.55;17.33;;;;;;;;;;5074511;28;20047;-65
2021/03/30 04:38:43;;;;;;;39.08;17.67;;;;;;;;;;5074162;28;20127;-67
2021/03/30 04:41:10;;;;;;;44.65;17.05;;;;;;;;;;5073913;28;20669;-67
2021/03/30 04:43:37;;;;;;;41.13;15.85;;;;;;;;;;5073370;28;20132;-67
2021/03/30 04:46:07;;;;;;;42.35;16.85;;;13.90;44.50;;;;;;5055655;28;20490;-67
2021/03/30 04:48:34;;;;;;;38.63;17.33;;;;;;;;;;5056221;28;20053;-67
2021/03/30 04:51:01;;;;;;;42.10;17.08;;;;;;;;;;5073761;28;20455;-66
2021/03/30 04:53:29;;;;;;;40.83;16.90;;;;;;;;;;5073496;28;20064;-67
2021/03/30 04:55:56;;;;;;;40.75;17.80;;;;;;;;;;5073313;28;20049;-65
2021/03/30 04:58:23;;;;;;;37.17;17.60;;;;;;;;;;5073561;28;20048;-66
2021/03/30 05:00:51;;;;;;;40.10;17.98;;;;;;;;;;5071777;28;20053;-65
2021/03/30 05:03:18;;;;;;;37.97;17.83;;;;;;;;;;5055589;28;20443;-66
2021/03/30 05:05:45;;;;;;;39.78;17.45;;;;;;;;;;5073309;28;20040;-67
2021/03/30 05:08:12;;;;;;;39.63;18.73;;;;;;;;;;5072684;28;20048;-65
2021/03/30 05:10:39;;;;;;;39.28;18.33;;;;;;;;;;5072991;28;20048;-67
2021/03/30 05:13:06;;;;;;;44.92;19.80;;;;;;;;;;5073128;28;20060;-70
2021/03/30 05:15:33;;;;;;;45.42;18.95;;;;;;;;;;5056569;28;20507;-66
2021/03/30 05:18:00;;;;;;;41.17;19.25;;;;;;;;;;5066875;28;20068;-67
2021/03/30 05:20:28;;;;;;;43.70;18.15;;;;;;;;;;5057728;28;20044;-67
2021/03/30 05:22:55;;;;;;;41.20;20.08;;;;;;;;;;5072304;28;20040;-64
2021/03/30 05:25:22;;;;;;;44.90;19.65;;;;;;;;;;5072392;28;20036;-65
2021/03/30 05:27:49;;;;;;;41.13;18.85;;;;;;;;;;5072626;28;20044;-63
2021/03/30 05:30:16;;;;;;;45.28;18.48;;;14.00;43.40;;;;;;5072470;28;20048;-65
2021/03/30 05:32:43;;;;;;;40.42;18.55;;;;;;;;;;5072722;28;20040;-66
2021/03/30 05:35:11;;;;;;;41.85;19.55;;;14.00;43.20;;;;;;5054571;28;20052;-66
2021/03/30 05:37:43;;;;;;;44.30;18.02;;;;;;;;;;5070120;28;20548;-65
2021/03/30 05:40:15;;;;;;;39.00;17.30;;;13.90;43.70;;;;;;5071720;28;20071;-64
2021/03/30 05:42:43;;;;;;;42.30;19.80;;;13.80;44.40;;;;;;5071805;28;20048;-66
2021/03/30 05:45:12;;;;;;;47.40;19.60;;;13.80;44.60;;;;;;5071860;28;20052;-67
2021/03/30 05:47:40;;;;;;;39.78;18.25;;;;;;;;;;5072079;28;20499;-66
2021/03/30 05:50:18;;;;;;;43.60;18.90;;;13.70;45.10;;;;;;5072053;28;20032;-66
2021/03/30 05:53:06;;;;;;;36.38;17.88;;;13.70;44.70;;;;;;5062108;28;20070;-65
2021/03/30 05:55:36;;;;;;;44.53;19.05;;;13.80;44.50;;;;;;5070801;28;20658;-67
2021/03/30 05:58:06;;;;;;;37.78;17.80;;;13.60;45.20;;;;;;5071511;28;20049;-66
2021/03/30 06:00:36;;;;;;;61.83;18.45;;;13.70;44.90;;;;;;5071791;28;20040;-65
2021/03/30 06:03:06;;;;;;;47.22;19.88;;;13.90;44.80;;;;;;5071842;28;20076;-68
2021/03/30 06:05:34;;;;;;;42.33;19.05;;;;;;;;;;5071464;28;20040;-65
2021/03/30 06:08:02;;;;;;;40.67;18.70;;;14.30;44.40;;;;;;5071229;28;20048;-66
2021/03/30 06:10:31;;;;;;;45.65;18.58;;;14.30;44.20;;;;;;5071480;28;20119;-68
2021/03/30 06:12:59;;;;;;;38.70;17.95;;;14.40;43.90;;;;;;5070956;28;20065;-67
2021/03/30 06:15:31;;;;;;;39.80;19.30;;;;;;;;;;5071480;28;20044;-66
2021/03/30 06:18:00;;;;;;;47.67;18.85;;;14.40;43.60;;;;;;5071649;28;20375;-66
2021/03/30 06:20:30;;;;;;;52.80;19.33;;;14.50;43.60;;;;;;5071203;28;20502;-65
2021/03/30 06:23:00;;;;;;;38.67;19.20;;;14.40;43.30;;;;;;4702197;28;10000411;-64
2021/03/30 06:25:50;;;;;;;39.15;18.20;;;14.70;43.10;;;;;;5068410;28;20114;-65
2021/03/30 06:28:25;;;;;;;45.83;18.45;;;14.80;42.70;;;;;;5067511;28;20059;-65
2021/03/30 06:31:03;;;;;;;44.33;18.88;;;14.80;42.40;;;;;;5068703;28;20048;-68
2021/03/30 06:33:33;;;;;;;39.50;17.75;;;14.90;42.20;;;;;;5050960;28;20494;-67
2021/03/30 06:36:16;;;;;;;36.35;17.90;;;14.90;42.20;;;;;;5067436;28;20036;-67
2021/03/30 06:38:47;;;;;;;44.60;19.67;;;15.10;42.20;;;;;;5067290;28;20032;-63
2021/03/30 06:41:54;;;;;;;46.20;19.10;;;15.20;42.00;;;;;;5052933;28;20052;-67
2021/03/30 06:44:26;;;;;;;41.45;19.00;;;15.40;41.80;;;;;;5068063;28;20131;-65
2021/03/30 06:46:53;;;;;;;46.08;19.40;;;;;;;;;;5068488;28;20495;-66
2021/03/30 06:49:21;;;;;;;38.00;18.80;;;;;;;;;;5067641;28;20108;-68
2021/03/30 06:51:48;;;;;;;40.47;19.40;;;15.80;41.30;;;;;;5068217;28;20507;-67
2021/03/30 06:54:16;;;;;;;48.88;19.10;;;16.00;41.10;;;;;;5067863;28;20059;-68
2021/03/30 06:56:48;;;;;;;45.38;20.02;;;16.10;41.10;;;;;;5068229;28;20078;-65
2021/03/30 06:59:15;;;;;;;45.20;19.17;;;;;;;;;;5051102;28;20498;-68
2021/03/30 07:01:44;;;;;;;48.45;20.95;;;16.40;40.50;;;;;;5051355;28;20053;-68
2021/03/30 07:04:12;;;;;;;47.20;19.67;;;;;;;;;;5069974;28;20044;-68
2021/03/30 07:06:48;;;;;;;39.95;19.17;;;16.80;40.20;;;;;;5070726;28;20052;-67
2021/03/30 07:09:16;;;;;;;91.13;21.23;;;17.10;38.70;;;;;;5070701;28;20040;-65
2021/03/30 07:11:43;;;;;;;41.40;19.08;;;;;;;;;;5070608;28;20045;-66
2021/03/30 07:14:10;;;;;;;41.42;19.15;;;;;;;;;;5069968;28;20427;-69
2021/03/30 07:16:53;;;;;;;42.88;20.52;;;17.70;37.40;;;;;;5070248;28;20441;-66
2021/03/30 07:19:23;;;;;;;44.92;19.35;;;17.90;38.00;;;;;;5069941;28;20129;-68
2021/03/30 07:22:12;;;;;;;43.63;19.48;;;18.10;37.10;;;;;;5051849;28;20737;-68
2021/03/30 07:24:47;;;;;;;48.00;19.98;;;18.30;37.40;;;;;;5061318;28;20045;-66
2021/03/30 07:27:19;;;;;;;45.97;19.83;;;18.50;36.50;;;;;;5064480;28;20067;-69
2021/03/30 07:29:47;;;;;;;38.63;19.40;;;18.50;35.90;;;;;;5070341;28;20041;-66
2021/03/30 07:32:43;;;;;;;43.20;18.30;;;18.60;35.80;;;;;;5070271;28;20044;-68
2021/03/30 07:35:15;;;;;;;43.13;17.92;;;18.70;35.30;;;;;;5069994;28;20072;-66
2021/03/30 07:37:58;;;;;;;37.70;18.65;;;18.60;35.40;;;;;;5070441;28;20072;-65
2021/03/30 07:40:26;;;;;;;44.92;19.10;;;;;;;;;;5068288;28;20052;-66
2021/03/30 07:42:53;;;;;;;42.10;20.05;;;;;;;;;;5069765;28;20095;-66
2021/03/30 07:45:22;;;;;;;44.67;19.58;;;18.60;36.20;;;;;;5070173;28;20041;-66
2021/03/30 07:47:51;;;;;;;39.15;19.83;;;18.70;35.90;;;;;;5049557;28;20051;-67
2021/03/30 07:50:22;;;;;;;42.92;19.15;;;18.70;36.00;;;;;;5070475;28;20085;-66
2021/03/30 07:52:52;;;;;;;42.53;19.88;;;18.80;36.00;;;;;;5069879;28;20040;-68
2021/03/30 07:55:29;;;;;;;41.10;19.52;;;18.90;36.00;;;;;;5055642;28;20072;-66
2021/03/30 07:58:12;;;;;;;40.25;19.88;;;18.90;36.10;;;;;;5070119;28;20084;-65
2021/03/30 08:00:39;;;;;;;47.42;21.23;;;19.10;36.20;;;;;;5070358;28;20049;-68
2021/03/30 08:03:09;;;;;;;48.00;20.67;;;19.20;36.10;;;;;;5069639;28;20048;-65
2021/03/30 08:05:36;;;;;;;43.30;19.48;;;19.40;36.40;;;;;;5069863;28;20052;-66
2021/03/30 08:08:21;;;;;;;44.08;20.55;;;19.60;35.80;;;;;;5070493;28;20106;-68
2021/03/30 08:10:49;;;;;;;45.80;20.17;;;19.80;35.60;;;;;;5052314;28;20040;-66
2021/03/30 08:13:33;;;;;;;41.40;20.65;;;19.90;35.50;;;;;;5069396;28;20053;-68
2021/03/30 08:16:01;;;;;;;42.22;20.67;;;;;;;;;;5068913;28;20455;-66
2021/03/30 08:18:31;;;;;;;45.08;20.70;;;19.90;35.10;;;;;;5071762;28;20049;-68
2021/03/30 08:21:05;;;;;;;42.67;21.30;;;19.90;35.50;;;;;;5073662;28;20071;-68
2021/03/30 08:23:52;;;;;;;43.30;21.10;;;19.60;35.60;;;;;;5072576;28;20040;-66
2021/03/30 08:26:39;;;;;;;45.45;21.30;;;19.60;35.60;;;;;;5073871;28;20051;-65
2021/03/30 08:29:16;;;;;;;46.42;21.17;;;19.60;35.60;;;;;;5073495;28;20104;-68
2021/03/30 08:31:55;;;;;;;51.95;22.73;;;19.50;35.40;;;;;;5072832;28;20036;-65
2021/03/30 08:34:27;;;;;;;53.72;22.60;;;19.50;35.60;;;;;;5072851;28;20052;-67
2021/03/30 08:36:58;;;;;;;50.28;22.35;;;19.40;36.00;;;;;;5073386;28;20036;-65
2021/03/30 08:39:25;;;;;;;50.42;22.58;;;19.50;36.20;;;;;;5072706;28;20043;-66
2021/03/30 08:42:00;;;;;;;52.25;22.50;;;19.40;35.90;;;;;;5073076;28;20049;-66
2021/03/30 08:44:43;;;;;;;44.92;21.38;;;19.50;35.90;;;;;;5072930;28;20064;-69
2021/03/30 08:47:31;;;;;;;53.67;23.25;;;19.50;36.10;;;;;;5072603;28;20032;-65
2021/03/30 08:50:13;;;;;;;59.00;23.45;;;19.60;35.90;;;;;;5072858;28;20098;-67
2021/03/30 08:52:41;;;;;;;47.85;23.50;;;19.50;35.90;;;;;;5072878;28;20043;-66
2021/03/30 08:55:09;;;;;;;50.92;24.42;;;19.70;35.70;;;;;;5073214;28;20052;-65
2021/03/30 08:57:38;;;;;;;61.55;25.50;;;19.70;35.30;;;;;;5073111;28;20063;-67
2021/03/30 09:00:11;;;;;;;51.75;24.88;;;19.80;35.40;;;;;;5072581;28;20060;-67
2021/03/30 09:02:42;;;;;;;56.83;24.83;;;19.90;35.40;;;;;;5072904;28;20127;-64
2021/03/30 09:05:17;;;;;;;58.05;26.73;;;19.90;35.10;;;;;;5054057;28;20045;-67
2021/03/30 09:07:45;;;;;;;52.15;25.88;;;20.00;35.20;;;;;;5072668;28;20059;-68
2021/03/30 09:10:12;;;;;;;63.08;26.70;;;20.00;35.10;;;;;;5072526;28;20395;-66
2021/03/30 09:12:39;;;;;;;52.42;25.30;;;20.20;35.10;;;;;;5072224;28;20064;-66
2021/03/30 09:15:11;;;;;;;60.33;26.90;;;20.20;34.60;;;;;;5054329;28;20049;-66
2021/03/30 09:17:59;;;;;;;58.40;26.85;;;20.30;34.50;;;;;;5072872;28;20045;-68
2021/03/30 09:20:29;;;;;;;59.60;25.52;;;20.30;34.60;;;;;;5072462;28;20033;-66
2021/03/30 09:23:00;;;;;;;59.03;26.17;;;20.30;34.50;;;;;;5070749;28;20383;-67
2021/03/30 09:25:41;;;;;;;74.60;27.08;;;20.50;34.70;;;;;;5068910;28;20062;-65
2021/03/30 09:28:16;;;;;;;52.38;24.63;;;20.70;35.00;;;;;;5071544;28;20264;-67
2021/03/30 09:30:43;;;;;;;61.53;26.60;;;20.70;34.70;;;;;;5071692;28;20044;-65
2021/03/30 09:33:11;;;;;;;58.08;26.23;;;20.60;34.70;;;;;;5063552;28;20052;-68
2021/03/30 09:35:44;;;;;;;54.40;25.10;;;21.00;34.50;;;;;;5071892;28;20494;-68
2021/03/30 09:38:12;;;;;;;59.40;26.13;;;20.90;34.30;;;;;;5071862;28;20052;-68
2021/03/30 09:40:42;;;;;;;63.95;27.10;;;21.00;34.10;;;;;;5063895;28;20509;-66
2021/03/30 09:43:11;;;;;;;60.22;27.55;;;21.20;33.80;;;;;;5071228;28;20075;-67
2021/03/30 09:45:39;;;;;;;59.67;27.77;;;21.10;33.60;;;;;;5071170;28;20127;-68
2021/03/30 09:48:09;;;;;;;63.40;28.63;;;21.30;33.90;;;;;;5069782;28;20077;-68
2021/03/30 09:50:41;;;;;;;58.22;27.73;;;21.50;33.10;;;;;;5071459;28;20355;-66
2021/03/30 09:53:21;;;;;;;61.63;27.20;;;21.50;32.90;;;;;;5071228;28;20123;-68
2021/03/30 09:55:49;;;;;;;59.40;26.65;;;21.60;32.00;;;;;;5072301;28;20133;-68
2021/03/30 09:58:21;;;;;;;56.33;26.10;;;;;;;;;;5054030;28;20044;-66
2021/03/30 10:00:50;;;;;;;64.35;26.98;;;21.60;31.90;;;;;;5072182;28;20528;-64
2021/03/30 10:03:18;;;;;;;58.70;26.60;;;21.70;32.20;;;;;;5071410;28;20083;-65
2021/03/30 10:05:45;;;;;;;61.88;26.95;;;21.40;32.90;;;;;;5053590;28;20048;-66
2021/03/30 10:08:26;;;;;;;60.05;27.27;;;;;;;;;;5054212;28;20108;-66
2021/03/30 10:10:57;;;;;;;56.78;27.35;;;21.70;32.60;;;;;;5072071;28;20449;-67
2021/03/30 10:13:30;;;;;;;60.33;26.77;;;22.00;32.30;;;;;;5071239;28;20048;-67
2021/03/30 10:15:59;;;;;;;56.65;25.60;;;22.20;31.40;;;;;;5054616;28;20503;-68
2021/03/30 10:18:28;;;;;;;58.22;25.88;;;22.20;31.60;;;;;;5071642;28;20044;-66
2021/03/30 10:20:58;;;;;;;54.65;26.17;;;22.10;31.50;;;;;;5071826;28;20045;-65
2021/03/30 10:23:30;;;;;;;49.10;25.25;;;22.30;31.20;;;;;;5071366;28;20033;-65
2021/03/30 10:26:13;;;;;;;47.83;23.23;;;22.30;30.30;;;;;;5053455;28;20660;-65
2021/03/30 10:28:41;;;;;;;49.35;22.48;;;22.60;28.90;;;;;;5052372;28;20046;-67
2021/03/30 10:31:16;;;;;;;53.03;24.33;;;22.60;29.30;;;;;;5070350;28;20123;-67
2021/03/30 10:33:49;;;;;;;55.65;24.98;;;22.80;29.80;;;;;;5070889;28;20487;-67
2021/03/30 10:36:16;;;;;;;48.70;22.48;;;23.30;29.00;;;;;;5057890;28;20060;-68
2021/03/30 10:39:02;;;;;;;49.92;22.85;;;23.40;29.10;;;;;;5070947;28;20044;-64
2021/03/30 10:41:37;;;;;;;47.72;23.85;;;23.50;28.80;;;;;;5070738;28;20048;-69
2021/03/30 10:44:05;;;;;;;51.83;23.03;;;24.80;28.20;;;;;;5071556;28;20141;-72
2021/03/30 10:46:44;;;;;;;48.25;22.73;;;25.20;26.80;;;;;;5071662;28;20909;-71
2021/03/30 10:49:14;;;;;;;49.97;23.95;;;;;;;;;;5050707;28;20041;-68
2021/03/30 10:51:44;;;;;;;46.70;22.65;;;25.50;26.10;;;;;;5052258;28;20578;-67
2021/03/30 10:54:14;;;;;;;43.60;20.85;;;26.40;26.60;;;;;;5070724;28;20040;-67
2021/03/30 10:56:41;;;;;;;45.45;22.10;;;26.50;25.50;;;;;;5069944;28;20056;-66
2021/03/30 10:59:15;;;;;;;47.15;22.40;;;26.80;25.60;;;;;;5070455;28;20127;-71
2021/03/30 11:01:42;;;;;;;47.38;22.55;;;27.50;26.20;;;;;;5070256;28;20047;-73
2021/03/30 11:04:09;;;;;;;46.30;22.67;;;27.70;25.70;;;;;;5051155;28;20057;-73
2021/03/30 11:06:36;;;;;;;45.92;23.00;;;27.90;23.80;;;;;;5032869;28;20523;-71
2021/03/30 11:09:04;;;;;;;39.17;20.25;;;28.00;24.90;;;;;;5069732;28;20052;-71
2021/03/30 11:11:35;;;;;;;47.33;22.15;;;28.30;24.30;;;;;;5070364;28;20052;-68
2021/03/30 11:14:04;;;;;;;42.13;19.52;;;28.50;24.20;;;;;;5070126;28;20120;-71
2021/03/30 11:16:31;;;;;;;47.40;21.50;;;28.70;23.40;;;;;;5070837;28;20123;-68
2021/03/30 11:19:14;;;;;;;40.83;20.60;;;28.80;23.80;;;;;;5057535;28;20048;-62
2021/03/30 11:21:41;;;;;;;39.10;20.38;;;28.80;22.60;;;;;;5070570;28;20072;-67
2021/03/30 11:24:11;;;;;;;33.38;17.05;;;28.80;22.70;;;;;;5069078;28;20052;-63
2021/03/30 11:26:40;;;;;;;33.15;16.48;;;28.70;21.50;;;;;;5069917;28;20123;-65
2021/03/30 11:29:09;;;;;;;38.85;17.77;;;28.70;23.00;;;;;;5070244;28;20085;-66
2021/03/30 11:34:29;;;;;;;32.27;15.57;;;28.70;22.30;;;;;;5070011;28;20091;-65
2021/03/30 11:39:37;;;;;;;36.42;17.67;;;28.60;21.50;;;;;;5056317;28;20044;-66
2021/03/30 11:42:05;;;;;;;32.65;16.80;;;28.90;22.00;;;;;;5069734;28;20059;-62
2021/03/30 11:44:32;;;;;;;36.42;17.50;;;28.60;21.10;;;;;;5069978;28;20524;-65
2021/03/30 11:47:00;;;;;;;35.25;17.50;;;28.60;21.70;;;;;;5069514;28;20079;-66
2021/03/30 11:49:28;;;;;;;34.25;15.52;;;29.00;22.40;;;;;;5069969;28;20548;-63
2021/03/30 11:51:56;;;;;;;33.90;15.48;;;29.20;22.00;;;;;;5070123;28;20041;-66
2021/03/30 11:54:23;;;;;;;31.85;15.90;;;29.30;21.70;;;;;;5072877;28;20067;-65
2021/03/30 11:56:50;;;;;;;32.83;16.60;;;29.50;20.70;;;;;;5072951;28;20028;-64
2021/03/30 11:59:17;;;;;;;32.95;16.30;;;29.50;20.50;;;;;;5073717;28;20119;-65
2021/03/30 12:01:44;;;;;;;33.35;15.65;;;29.70;20.90;;;;;;5055944;28;20454;-63
2021/03/30 12:04:11;;;;;;;31.60;15.85;;;29.50;20.60;;;;;;5073696;28;20142;-63
2021/03/30 12:06:38;;;;;;;34.92;16.08;;;29.30;21.40;;;;;;5073243;28;20165;-63
2021/03/30 12:09:05;;;;;;;31.35;14.93;;;29.20;20.00;;;;;;5071114;28;20083;-65
2021/03/30 12:11:32;;;;;;;39.42;16.50;;;29.00;19.90;;;;;;5073416;28;20075;-66
2021/03/30 12:13:59;;;;;;;29.88;15.55;;;28.90;20.20;;;;;;5073038;28;20049;-65
2021/03/30 12:16:27;;;;;;;31.50;14.65;;;28.90;20.80;;;;;;5073545;28;20487;-65
2021/03/30 12:18:54;;;;;;;29.95;14.52;;;29.00;20.80;;;;;;5073206;28;20138;-62
2021/03/30 12:21:24;;;;;;;35.17;15.40;;;29.00;19.60;;;;;;5073398;28;20052;-65
2021/03/30 12:23:51;;;;;;;29.95;15.77;;;28.80;20.00;;;;;;5054753;28;20040;-64
2021/03/30 12:26:18;;;;;;;30.80;15.25;;;29.00;21.20;;;;;;5055380;28;20447;-65
2021/03/30 12:28:45;;;;;;;29.85;14.90;;;28.60;18.70;;;;;;5055406;28;20491;-64
2021/03/30 12:31:22;;;;;;;31.60;16.52;;;28.80;20.70;;;;;;5072324;28;20086;-64
2021/03/30 12:33:49;;;;;;;31.83;15.55;;;28.90;20.40;;;;;;5055447;28;20063;-65
2021/03/30 12:36:16;;;;;;;36.97;16.40;;;29.00;20.00;;;;;;5073533;28;20036;-65
2021/03/30 12:38:43;;;;;;;34.25;15.73;;;;;;;;;;5072684;28;20055;-64
2021/03/30 12:41:10;;;;;;;34.13;15.38;;;29.10;20.20;;;;;;5055305;28;20057;-65
2021/03/30 12:43:36;;;;;;;31.00;16.13;;;29.10;19.10;;;;;;5073117;28;20049;-66
2021/03/30 12:46:07;;;;;;;39.25;16.80;;;29.00;19.30;;;;;;5055708;28;20064;-65
2021/03/30 12:48:33;;;;;;;29.98;16.65;;;29.00;20.10;;;;;;5055174;28;20048;-65
2021/03/30 12:51:00;;;;;;;35.90;15.75;;;29.10;19.50;;;;;;5055367;28;20048;-66
2021/03/30 12:53:27;;;;;;;31.52;14.98;;;29.10;19.60;;;;;;5072200;28;20115;-64
2021/03/30 12:55:54;;;;;;;30.33;15.77;;;29.20;19.50;;;;;;5072639;28;20558;-63
2021/03/30 12:58:20;;;;;;;39.40;19.23;;;29.20;19.90;;;;;;5072739;28;20049;-65
2021/03/30 13:00:47;;;;;;;36.38;18.20;;;29.20;20.50;;;;;;5055119;28;20049;-64
2021/03/30 13:03:34;;;;;;;36.45;17.08;;;29.30;20.80;;;;;;5071926;28;20051;-63
2021/03/30 13:06:00;;;;;;;36.28;17.27;;;29.00;19.30;;;;;;5072285;28;20119;-64
2021/03/30 13:08:28;;;;;;;36.08;16.50;;;;;;;;;;5071787;28;20407;-64
2021/03/30 13:10:54;;;;;;;30.23;15.32;;;29.20;19.40;;;;;;5054254;28;20040;-64
2021/03/30 13:13:21;;;;;;;46.55;17.20;;;29.10;19.20;;;;;;5053757;28;20560;-64